createdAt,value
2022-09-03T18:08:59.512Z,22.4
2022-09-03T18:10:03.014Z,21
2022-09-03T18:11:05.804Z,20.8
2022-09-03T18:12:08.394Z,20.5
2022-09-03T18:13:14.457Z,20.3
2022-09-03T18:14:25.510Z,20.2
2022-09-03T18:15:28.467Z,20
2022-09-03T18:16:30.973Z,20
2022-09-03T18:17:35.818Z,20
2022-09-03T18:18:38.897Z,20.3
2022-09-03T18:19:42.052Z,20.6
2022-09-03T18:20:44.847Z,20.8
2022-09-03T18:21:47.364Z,21
2022-09-03T18:22:50.502Z,21.2
2022-09-03T18:23:53.925Z,21.3
2022-09-03T18:24:56.916Z,21.4
2022-09-03T18:25:59.239Z,21.5
2022-09-03T18:27:02.318Z,21.6
2022-09-03T18:28:05.121Z,21.7
2022-09-03T18:29:07.552Z,21.7
2022-09-03T18:30:10.720Z,21.8
2022-09-03T18:31:13.807Z,21.8
2022-09-03T18:32:17.067Z,21.8
2022-09-03T18:33:19.908Z,21.9
2022-09-03T18:34:22.863Z,21.9
2022-09-03T18:35:27.124Z,21.9
2022-09-03T18:36:30.014Z,22
2022-09-03T18:37:33.249Z,22
2022-09-03T18:38:36.324Z,22
2022-09-03T18:39:39.315Z,22
2022-09-03T18:40:42.644Z,22
2022-09-03T18:41:45.349Z,22
2022-09-03T18:42:48.205Z,22
2022-09-03T18:43:50.636Z,22
2022-09-03T18:45:23.276Z,22
2022-09-03T18:48:21.263Z,22
2022-09-03T18:49:25.021Z,22.1
2022-09-03T18:50:28.369Z,22.1
2022-09-03T18:51:31.866Z,22.1
2022-09-03T18:52:34.941Z,22.1
2022-09-03T18:53:37.727Z,22.1
2022-09-03T18:55:09.260Z,22
2022-09-03T18:56:14.562Z,22
2022-09-03T18:57:17.713Z,22
2022-09-03T18:58:20.871Z,22
2022-09-03T18:59:23.738Z,22
2022-09-03T19:00:30.056Z,21.9
2022-09-03T19:01:33.766Z,21.9
2022-09-03T19:02:37.288Z,21.9
2022-09-03T19:03:40.811Z,21.9
2022-09-03T19:04:44.031Z,21.8
2022-09-03T19:05:47.183Z,21.8
2022-09-03T19:06:50.329Z,21.8
2022-09-03T19:08:00.927Z,21.7
2022-09-03T19:09:04.554Z,21.8
2022-09-03T19:10:07.626Z,21.7
2022-09-03T19:11:10.143Z,21.7
2022-09-03T19:12:12.948Z,21.7
2022-09-03T19:13:16.669Z,21.7
2022-09-03T19:14:24.491Z,21.6
2022-09-03T19:15:27.650Z,21.6
2022-09-03T19:16:30.639Z,21.6
2022-09-03T19:17:34.067Z,21.6
2022-09-03T19:18:36.943Z,21.6
2022-09-03T19:19:40.639Z,21.6
2022-09-03T19:20:43.504Z,21.5
2022-09-03T19:21:46.007Z,21.5
2022-09-03T19:22:49.063Z,21.5
2022-09-03T19:23:56.061Z,21.5
2022-09-03T19:24:58.735Z,21.5
2022-09-03T19:26:01.873Z,21.4
2022-09-03T19:27:50.855Z,21.4
2022-09-03T19:29:02.874Z,21.4
2022-09-03T19:30:06.283Z,21.4
2022-09-03T19:31:09.639Z,21.4
2022-09-03T19:32:12.660Z,21.3
2022-09-03T19:33:17.929Z,21.4
2022-09-03T19:34:20.575Z,21.3
2022-09-03T19:35:23.155Z,21.3
2022-09-03T19:36:26.500Z,21.3
2022-09-03T19:37:29.652Z,21.3
2022-09-03T19:38:32.927Z,21.2
2022-09-03T19:39:36.191Z,21.2
2022-09-03T19:40:38.800Z,21.2
2022-09-03T19:41:41.664Z,21.2
2022-09-03T19:42:44.807Z,21.2
2022-09-03T19:43:48.639Z,21.2
2022-09-03T19:44:52.287Z,21.1
2022-09-03T19:45:55.888Z,21.1
2022-09-03T19:47:01.253Z,21.1
2022-09-03T19:48:04.323Z,21.1
2022-09-03T19:49:07.182Z,21
2022-09-03T19:50:10.385Z,21.1
2022-09-03T19:51:13.272Z,21
2022-09-03T19:52:15.599Z,21
2022-09-03T19:53:18.894Z,21
2022-09-03T19:54:21.970Z,21
2022-09-03T19:55:29.059Z,21
2022-09-03T19:56:34.782Z,20.9
2022-09-03T19:57:37.936Z,21
2022-09-03T19:58:45.183Z,20.9
2022-09-03T19:59:48.717Z,20.9
2022-09-03T20:00:52.151Z,20.9
2022-09-03T20:01:55.599Z,20.9
2022-09-03T20:02:58.839Z,20.9
2022-09-03T20:04:02.807Z,20.9
2022-09-03T20:05:05.671Z,20.9
2022-09-03T20:06:12.151Z,20.8
2022-09-03T20:07:15.390Z,20.8
2022-09-03T20:08:18.817Z,20.8
2022-09-03T20:09:22.007Z,20.8
2022-09-03T20:10:24.343Z,20.8
2022-09-03T20:11:27.355Z,20.7
2022-09-03T20:12:29.982Z,20.8
2022-09-03T20:13:32.589Z,20.7
2022-09-03T20:14:35.468Z,20.7
2022-09-03T20:15:40.680Z,20.7
2022-09-03T20:16:47.134Z,20.6
2022-09-03T20:17:50.098Z,20.6
2022-09-03T20:18:52.900Z,20.6
2022-09-03T20:19:56.075Z,20.6
2022-09-03T20:20:58.770Z,20.6
2022-09-03T20:22:02.214Z,20.6
2022-09-03T20:23:05.379Z,20.6
2022-09-03T20:24:07.903Z,20.6
2022-09-03T20:25:11.608Z,20.6
2022-09-03T20:26:13.937Z,20.6
2022-09-03T20:27:18.721Z,20.6
2022-09-03T20:28:21.772Z,20.6
2022-09-03T20:29:24.821Z,20.6
2022-09-03T20:30:28.200Z,20.5
2022-09-03T20:31:31.580Z,20.5
2022-09-03T20:32:42.798Z,20.5
2022-09-03T20:33:46.003Z,20.5
2022-09-03T20:34:49.188Z,20.5
2022-09-03T20:35:52.058Z,20.4
2022-09-03T20:36:54.579Z,20.4
2022-09-03T20:37:57.174Z,20.4
2022-09-03T20:39:00.604Z,20.4
2022-09-03T20:40:03.096Z,20.4
2022-09-03T20:41:05.882Z,20.3
2022-09-03T20:42:09.031Z,20.4
2022-09-03T20:43:12.447Z,20.3
2022-09-03T20:44:14.324Z,20.3
2022-09-03T20:45:17.670Z,20.3
2022-09-03T20:46:20.773Z,20.3
2022-09-03T20:47:28.760Z,20.3
2022-09-03T20:48:35.840Z,20.3
2022-09-03T20:49:38.909Z,20.3
2022-09-03T20:50:41.771Z,20.3
2022-09-03T20:51:45.131Z,20.3
2022-09-03T20:52:48.275Z,20.2
2022-09-03T20:53:50.853Z,20.2
2022-09-03T20:54:53.934Z,20.2
2022-09-03T20:55:57.157Z,20.2
2022-09-03T20:57:00.217Z,20.2
2022-09-03T20:58:03.086Z,20.2
2022-09-03T20:59:06.183Z,20.2
2022-09-03T21:00:08.787Z,20.1
2022-09-03T21:01:11.315Z,20.1
2022-09-03T21:02:14.606Z,20.1
2022-09-03T21:03:17.707Z,20.1
2022-09-03T21:04:20.574Z,20.1
2022-09-03T21:05:23.640Z,20.1
2022-09-03T21:06:26.716Z,20.1
2022-09-03T21:07:35.559Z,20.1
2022-09-03T21:08:43.311Z,20.1
2022-09-03T21:09:53.373Z,20.1
2022-09-03T21:10:57.370Z,20.1
2022-09-03T21:12:00.455Z,20.1
2022-09-03T21:13:03.129Z,20.1
2022-09-03T21:14:05.840Z,20.1
2022-09-03T21:15:08.360Z,20.1
2022-09-03T21:16:11.802Z,20.1
2022-09-03T21:17:20.719Z,20.1
2022-09-03T21:18:24.222Z,20
2022-09-03T21:19:28.051Z,20.1
2022-09-03T21:20:30.858Z,20.1
2022-09-03T21:21:37.213Z,20
2022-09-03T21:22:40.188Z,20.1
2022-09-03T21:23:42.656Z,20.1
2022-09-03T21:24:44.971Z,20.1
2022-09-03T21:25:48.414Z,20.1
2022-09-03T21:26:51.371Z,20
2022-09-03T21:27:54.751Z,20
2022-09-03T21:28:57.897Z,20.1
2022-09-03T21:30:02.317Z,20
2022-09-03T21:31:06.143Z,20
2022-09-03T21:32:09.802Z,20
2022-09-03T21:33:13.124Z,20
2022-09-03T21:34:16.278Z,20
2022-09-03T21:36:37.148Z,20
2022-09-03T21:37:40.520Z,20
2022-09-03T21:38:49.445Z,20
2022-09-03T21:39:54.786Z,20
2022-09-03T21:41:13.375Z,20
2022-09-03T21:42:17.310Z,20
2022-09-03T21:43:20.152Z,20
2022-09-03T21:44:22.863Z,20
2022-09-03T21:45:25.519Z,19.9
2022-09-03T21:46:28.780Z,19.9
2022-09-03T21:47:32.346Z,19.9
2022-09-03T21:48:35.973Z,19.9
2022-09-03T21:49:39.289Z,19.9
2022-09-03T21:50:41.526Z,19.9
2022-09-03T21:51:44.829Z,19.9
2022-09-03T21:52:47.985Z,19.9
2022-09-03T21:54:06.348Z,19.8
2022-09-03T21:55:09.965Z,19.8
2022-09-03T21:56:12.756Z,19.8
2022-09-03T21:57:16.868Z,19.8
2022-09-03T21:58:24.934Z,19.8
2022-09-03T21:59:28.563Z,19.8
2022-09-03T22:00:31.416Z,19.7
2022-09-03T22:01:34.919Z,19.7
2022-09-03T22:02:39.032Z,19.8
2022-09-03T22:03:42.308Z,19.8
2022-09-03T22:04:45.186Z,19.8
2022-09-03T22:05:48.321Z,19.8
2022-09-03T22:06:51.197Z,19.7
2022-09-03T22:07:54.895Z,19.8
2022-09-03T22:08:57.221Z,19.7
2022-09-03T22:10:00.548Z,19.7
2022-09-03T22:11:04.025Z,19.7
2022-09-03T22:12:06.899Z,19.7
2022-09-03T22:13:10.439Z,19.7
2022-09-03T22:14:13.337Z,19.7
2022-09-03T22:15:16.817Z,19.7
2022-09-03T22:16:19.796Z,19.7
2022-09-03T22:17:23.224Z,19.7
2022-09-03T22:18:30.016Z,19.7
2022-09-03T22:19:48.010Z,19.7
2022-09-03T22:20:51.603Z,19.7
2022-09-03T22:21:54.402Z,19.7
2022-09-03T22:23:01.705Z,19.7
2022-09-03T22:24:05.451Z,19.7
2022-09-03T22:25:09.142Z,19.7
2022-09-03T22:26:11.742Z,19.7
2022-09-03T22:27:14.549Z,19.7
2022-09-03T22:28:17.429Z,19.7
2022-09-03T22:29:20.260Z,19.7
2022-09-03T22:30:23.107Z,19.7
2022-09-03T22:31:25.790Z,19.7
2022-09-03T22:32:29.208Z,19.7
2022-09-03T22:33:32.115Z,19.7
2022-09-03T22:34:35.117Z,19.7
2022-09-03T22:35:37.713Z,19.7
2022-09-03T22:36:40.598Z,19.7
2022-09-03T22:37:43.495Z,19.7
2022-09-03T22:38:47.281Z,19.7
2022-09-03T22:39:50.051Z,19.7
2022-09-03T22:40:53.703Z,19.8
2022-09-03T22:41:56.698Z,19.7
2022-09-03T22:42:59.567Z,19.7
2022-09-03T22:44:01.777Z,19.7
2022-09-03T22:45:04.560Z,19.7
2022-09-03T22:46:07.888Z,19.7
2022-09-03T22:47:11.696Z,19.8
2022-09-03T22:48:15.635Z,19.7
2022-09-03T22:49:18.598Z,19.7
2022-09-03T22:50:21.142Z,19.7
2022-09-03T22:51:23.650Z,19.7
2022-09-03T22:52:31.069Z,19.7
2022-09-03T22:53:33.980Z,19.7
2022-09-03T22:54:37.293Z,19.7
2022-09-03T22:55:40.453Z,19.7
2022-09-03T22:56:42.974Z,19.7
2022-09-03T22:57:46.038Z,19.7
2022-09-03T22:58:49.464Z,19.7
2022-09-03T22:59:52.228Z,19.7
2022-09-03T23:00:55.483Z,19.7
2022-09-03T23:01:58.641Z,19.7
2022-09-03T23:03:02.025Z,19.7
2022-09-03T23:04:06.092Z,19.7
2022-09-03T23:05:09.548Z,19.7
2022-09-03T23:06:12.490Z,19.7
2022-09-03T23:07:15.345Z,19.7
2022-09-03T23:08:33.449Z,19.7
2022-09-03T23:09:36.254Z,19.7
2022-09-03T23:10:39.402Z,19.7
2022-09-03T23:11:42.473Z,19.7
2022-09-03T23:12:47.364Z,19.7
2022-09-03T23:13:50.626Z,19.7
2022-09-03T23:14:53.771Z,19.7
2022-09-03T23:15:56.580Z,19.7
2022-09-03T23:16:59.566Z,19.7
2022-09-03T23:18:03.064Z,19.7
2022-09-03T23:19:06.333Z,19.7
2022-09-03T23:21:10.785Z,19.7
2022-09-03T23:22:13.936Z,19.7
2022-09-03T23:23:16.740Z,19.7
2022-09-03T23:24:22.401Z,19.7
2022-09-03T23:25:25.757Z,19.7
2022-09-03T23:26:28.426Z,19.7
2022-09-03T23:27:30.947Z,19.7
2022-09-03T23:28:34.098Z,19.8
2022-09-03T23:29:36.625Z,19.8
2022-09-03T23:30:39.979Z,19.8
2022-09-03T23:31:42.763Z,19.8
2022-09-03T23:32:45.895Z,19.7
2022-09-03T23:33:48.493Z,19.7
2022-09-03T23:34:56.607Z,19.8
2022-09-03T23:36:00.021Z,19.7
2022-09-03T23:37:34.962Z,19.7
2022-09-03T23:38:38.899Z,19.7
2022-09-03T23:39:41.728Z,19.7
2022-09-03T23:40:45.178Z,19.7
2022-09-03T23:41:47.710Z,19.8
2022-09-03T23:42:50.514Z,19.7
2022-09-03T23:43:53.115Z,19.7
2022-09-03T23:44:57.165Z,19.8
2022-09-03T23:46:00.527Z,19.7
2022-09-03T23:47:03.308Z,19.7
2022-09-03T23:48:05.816Z,19.7
2022-09-03T23:49:09.083Z,19.7
2022-09-03T23:50:12.544Z,19.7
2022-09-03T23:51:15.143Z,19.7
2022-09-03T23:52:18.033Z,19.7
2022-09-03T23:53:21.617Z,19.7
2022-09-03T23:54:24.405Z,19.7
2022-09-03T23:55:27.232Z,19.7
2022-09-03T23:56:30.733Z,19.7
2022-09-03T23:57:34.000Z,19.8
2022-09-03T23:58:36.605Z,19.8
2022-09-03T23:59:39.479Z,19.8
